createdAt,value
2023-03-16T00:00:33.918Z,44.99
2023-03-16T00:05:36.704Z,45.21
2023-03-16T00:10:46.624Z,45.18
2023-03-16T00:15:51.027Z,45.07
2023-03-16T00:20:55.331Z,45.18
2023-03-16T00:26:02.027Z,45.38
2023-03-16T00:31:05.103Z,45.53
2023-03-16T00:36:09.381Z,45.55
2023-03-16T00:41:14.856Z,45.57
2023-03-16T00:46:18.436Z,45.95
2023-03-16T00:51:22.848Z,46.02
2023-03-16T00:56:29.021Z,46.08
2023-03-16T01:01:32.789Z,46.34
2023-03-16T01:06:35.672Z,46.47
2023-03-16T01:11:42.917Z,46.71
2023-03-16T01:16:46.422Z,46.76
2023-03-16T01:21:49.358Z,47.05
2023-03-16T01:26:54.423Z,47.28
2023-03-16T01:31:57.702Z,47.46
2023-03-16T01:37:00.928Z,47.62
2023-03-16T01:42:17.207Z,48.03
2023-03-16T01:47:20.067Z,48.02
2023-03-16T01:52:24.396Z,48.07
2023-03-16T01:57:30.535Z,48.18
2023-03-16T02:02:33.449Z,48.18
2023-03-16T02:07:39.100Z,48.29
2023-03-16T02:12:43.726Z,48.71
2023-03-16T02:17:48.434Z,48.47
2023-03-16T02:22:55.061Z,48.82
2023-03-16T02:28:04.069Z,48.92
2023-03-16T02:33:09.551Z,48.93
2023-03-16T02:38:12.387Z,48.94
2023-03-16T02:43:23.431Z,49.09
2023-03-16T02:48:45.375Z,49.01
2023-03-16T02:53:48.210Z,48.92
2023-03-16T02:58:51.664Z,49.39
2023-03-16T03:03:57.753Z,49.44
2023-03-16T03:09:01.952Z,49.38
2023-03-16T03:14:05.371Z,49.61
2023-03-16T03:19:09.767Z,49.55
2023-03-16T03:24:13.922Z,49.32
2023-03-16T03:29:16.705Z,49.76
2023-03-16T03:34:20.834Z,49.68
2023-03-16T03:39:23.676Z,49.53
2023-03-16T03:44:27.707Z,49.90
2023-03-16T03:49:32.805Z,50.06
2023-03-16T03:54:35.881Z,49.93
2023-03-16T03:59:43.899Z,49.76
2023-03-16T04:05:17.346Z,49.99
2023-03-16T04:10:21.664Z,49.90
2023-03-16T04:15:24.515Z,49.94
2023-03-16T04:20:49.073Z,50.23
2023-03-16T04:25:56.045Z,50.41
2023-03-16T04:31:02.513Z,50.36
2023-03-16T04:36:12.065Z,50.27
2023-03-16T04:41:15.625Z,49.97
2023-03-16T04:46:27.297Z,50.13
2023-03-16T04:51:32.262Z,50.00
2023-03-16T04:56:44.364Z,50.08
2023-03-16T05:02:01.406Z,50.26
2023-03-16T05:07:05.723Z,50.20
2023-03-16T05:12:13.369Z,50.08
2023-03-16T05:17:16.632Z,49.94
2023-03-16T05:22:23.490Z,50.04
2023-03-16T05:27:53.880Z,49.89
2023-03-16T05:33:21.540Z,50.01
2023-03-16T05:38:29.558Z,50.09
2023-03-16T05:43:34.394Z,49.78
2023-03-16T05:48:37.481Z,49.92
2023-03-16T05:53:42.863Z,50.02
2023-03-16T05:58:53.829Z,49.95
2023-03-16T06:03:58.052Z,49.59
2023-03-16T06:09:05.185Z,49.93
2023-03-16T06:14:08.519Z,49.77
2023-03-16T06:19:12.609Z,49.88
2023-03-16T06:24:17.303Z,49.95
2023-03-16T06:29:20.693Z,49.66
2023-03-16T06:34:23.646Z,49.47
2023-03-16T06:39:27.988Z,49.80
2023-03-16T06:44:31.301Z,49.59
2023-03-16T06:49:44.292Z,49.73
2023-03-16T06:54:58.428Z,49.44
2023-03-16T07:00:03.981Z,49.66
2023-03-16T07:05:07.455Z,49.61
2023-03-16T07:10:13.640Z,49.39
2023-03-16T07:15:16.639Z,49.56
2023-03-16T07:20:21.680Z,49.30
2023-03-16T07:25:27.048Z,49.36
2023-03-16T07:30:31.207Z,49.28
2023-03-16T07:35:34.735Z,49.47
2023-03-16T07:40:40.321Z,49.22
2023-03-16T07:45:50.166Z,49.35
2023-03-16T07:50:54.256Z,33.50
2023-03-16T07:55:59.916Z,32.14
2023-03-16T08:01:02.942Z,32.23
2023-03-16T08:06:06.247Z,31.89
2023-03-16T08:11:11.141Z,35.71
2023-03-16T08:16:25.066Z,36.32
2023-03-16T08:21:28.361Z,37.15
2023-03-16T08:26:32.597Z,37.01
2023-03-16T08:31:35.571Z,38.32
2023-03-16T08:36:46.720Z,38.79
2023-03-16T08:41:52.136Z,39.95
2023-03-16T08:47:05.171Z,41.02
2023-03-16T08:52:10.345Z,42.15
2023-03-16T08:57:14.497Z,43.64
2023-03-16T09:02:17.376Z,44.25
2023-03-16T09:07:20.433Z,44.58
2023-03-16T09:12:25.018Z,44.95
2023-03-16T09:17:28.531Z,44.89
2023-03-16T09:22:31.423Z,45.48
2023-03-16T09:27:36.600Z,45.75
2023-03-16T09:32:39.506Z,45.78
2023-03-16T09:37:45.361Z,45.97
2023-03-16T09:43:03.674Z,46.43
2023-03-16T09:48:09.277Z,46.49
2023-03-16T09:53:17.289Z,46.37
2023-03-16T09:58:22.347Z,46.51
2023-03-16T10:04:05.195Z,46.68
2023-03-16T10:14:54.288Z,46.81
2023-03-16T10:19:58.731Z,46.60
2023-03-16T10:25:05.442Z,46.81
2023-03-16T10:30:19.887Z,46.36
2023-03-16T10:35:41.911Z,41.64
2023-03-16T10:40:44.661Z,42.39
2023-03-16T10:45:49.907Z,42.46
2023-03-16T10:50:53.619Z,42.69
2023-03-16T10:55:58.743Z,43.17
2023-03-16T11:01:03.498Z,43.66
2023-03-16T11:06:07.525Z,43.26
2023-03-16T11:11:11.823Z,43.42
2023-03-16T11:16:24.541Z,43.60
2023-03-16T11:21:36.203Z,43.57
2023-03-16T11:26:40.931Z,43.51
2023-03-16T11:31:49.418Z,43.46
2023-03-16T11:36:54.632Z,43.74
2023-03-16T11:42:02.354Z,43.68
2023-03-16T11:47:13.842Z,43.83
2023-03-16T11:52:20.575Z,43.94
2023-03-16T11:57:32.683Z,44.01
2023-03-16T12:02:47.445Z,43.45
2023-03-16T12:07:54.706Z,43.27
2023-03-16T12:13:03.310Z,43.38
2023-03-16T12:18:13.096Z,43.03
2023-03-16T12:23:22.518Z,42.96
2023-03-16T12:28:25.875Z,42.49
2023-03-16T12:33:37.152Z,42.46
2023-03-16T12:38:44.476Z,42.54
2023-03-16T12:43:57.417Z,42.44
2023-03-16T12:49:02.176Z,41.85
2023-03-16T12:54:06.197Z,41.92
2023-03-16T12:59:11.565Z,41.79
2023-03-16T13:04:17.176Z,41.55
2023-03-16T13:09:22.762Z,41.35
2023-03-16T13:14:38.258Z,41.39
2023-03-16T13:19:44.986Z,41.24
2023-03-16T13:24:52.612Z,41.15
2023-03-16T13:29:59.325Z,41.11
2023-03-16T13:35:03.532Z,40.72
2023-03-16T13:40:19.510Z,40.59
2023-03-16T13:45:23.863Z,40.28
2023-03-16T13:50:28.223Z,40.64
2023-03-16T13:55:32.866Z,40.49
2023-03-16T14:00:36.959Z,40.51
2023-03-16T14:05:41.789Z,40.57
2023-03-16T14:10:45.116Z,40.41
2023-03-16T14:15:47.927Z,40.44
2023-03-16T14:20:53.222Z,40.42
2023-03-16T14:25:56.086Z,41.02
2023-03-16T14:31:03.968Z,40.66
2023-03-16T14:36:18.742Z,40.81
2023-03-16T14:41:24.133Z,40.92
2023-03-16T14:46:29.667Z,40.69
2023-03-16T14:51:34.919Z,40.98
2023-03-16T14:56:38.229Z,40.75
2023-03-16T15:01:41.243Z,40.63
2023-03-16T15:06:45.585Z,40.53
2023-03-16T15:11:49.115Z,40.40
2023-03-16T15:16:52.553Z,40.34
2023-03-16T15:21:57.939Z,39.98
2023-03-16T15:27:00.989Z,39.87
2023-03-16T15:32:04.273Z,39.75
2023-03-16T15:37:12.306Z,40.14
2023-03-16T15:42:16.557Z,40.30
2023-03-16T15:47:19.644Z,40.61
2023-03-16T15:52:27.561Z,41.04
2023-03-16T15:57:31.334Z,41.12
2023-03-16T16:02:34.224Z,41.63
2023-03-16T16:07:38.721Z,42.00
2023-03-16T16:12:41.529Z,42.08
2023-03-16T16:18:01.066Z,41.21
2023-03-16T16:23:10.414Z,40.73
2023-03-16T16:28:15.007Z,41.72
2023-03-16T16:33:25.368Z,42.18
2023-03-16T16:38:30.129Z,42.43
2023-03-16T16:43:34.632Z,43.09
2023-03-16T16:48:38.907Z,43.74
2023-03-16T16:53:43.045Z,44.05
2023-03-16T16:58:46.226Z,44.21
2023-03-16T17:03:49.049Z,44.68
2023-03-16T17:08:55.024Z,45.10
2023-03-16T17:13:59.329Z,45.45
2023-03-16T17:19:02.375Z,45.70
2023-03-16T17:24:07.760Z,46.11
2023-03-16T17:29:14.387Z,48.77
2023-03-16T17:34:18.304Z,49.40
2023-03-16T17:39:23.554Z,49.88
2023-03-16T17:44:34.162Z,49.62
2023-03-16T17:49:36.981Z,49.98
2023-03-16T17:54:41.096Z,49.50
2023-03-16T17:59:43.891Z,49.11
2023-03-16T18:04:46.745Z,48.44
2023-03-16T18:09:50.967Z,48.26
2023-03-16T18:14:58.458Z,47.96
2023-03-16T18:20:01.332Z,47.90
2023-03-16T18:25:10.540Z,47.89
2023-03-16T18:30:14.142Z,47.74
2023-03-16T18:35:17.031Z,47.64
2023-03-16T18:40:21.437Z,47.83
2023-03-16T18:45:24.446Z,47.54
2023-03-16T18:50:28.687Z,47.43
2023-03-16T18:55:33.020Z,47.42
2023-03-16T19:00:36.142Z,47.36
2023-03-16T19:05:39.498Z,47.32
2023-03-16T19:10:46.932Z,47.26
2023-03-16T19:15:50.056Z,47.26
2023-03-16T19:20:53.152Z,47.25
2023-03-16T19:25:58.302Z,47.12
2023-03-16T19:31:01.316Z,46.82
2023-03-16T19:36:04.717Z,46.91
2023-03-16T19:41:20.348Z,46.38
2023-03-16T19:46:23.238Z,46.07
2023-03-16T19:51:29.052Z,45.96
2023-03-16T19:56:33.489Z,45.72
2023-03-16T20:01:36.355Z,45.32
2023-03-16T20:06:39.210Z,45.15
2023-03-16T20:11:43.332Z,44.97
2023-03-16T20:16:47.978Z,44.75
2023-03-16T20:21:50.873Z,44.47
2023-03-16T20:26:55.039Z,44.44
2023-03-16T20:31:57.879Z,44.31
2023-03-16T20:37:01.135Z,44.18
2023-03-16T20:42:05.781Z,44.04
2023-03-16T20:47:11.372Z,43.85
2023-03-16T20:52:17.204Z,43.74
2023-03-16T20:57:22.687Z,43.65
2023-03-16T21:02:43.037Z,43.59
2023-03-16T21:07:46.001Z,43.53
2023-03-16T21:12:51.112Z,43.25
2023-03-16T21:17:57.036Z,43.19
2023-03-16T21:22:59.944Z,43.12
2023-03-16T21:28:04.999Z,42.95
2023-03-16T21:33:13.243Z,42.90
2023-03-16T21:38:17.031Z,43.05
2023-03-16T21:43:21.344Z,42.88
2023-03-16T21:48:25.859Z,43.19
2023-03-16T21:53:30.926Z,43.16
2023-03-16T21:58:35.220Z,43.42
2023-03-16T22:03:50.599Z,43.53
2023-03-16T22:08:54.026Z,43.55
2023-03-16T22:13:58.888Z,43.55
2023-03-16T22:19:01.917Z,43.72
2023-03-16T22:24:05.788Z,43.80
2023-03-16T22:29:25.235Z,43.62
2023-03-16T22:34:30.296Z,43.73
2023-03-16T22:39:36.086Z,43.60
2023-03-16T22:44:40.266Z,43.95
2023-03-16T22:49:43.096Z,43.68
2023-03-16T22:54:46.085Z,43.66
2023-03-16T22:59:50.337Z,43.77
2023-03-16T23:04:53.298Z,43.84
2023-03-16T23:09:56.658Z,44.02
2023-03-16T23:15:01.021Z,44.27
2023-03-16T23:20:04.167Z,44.09
2023-03-16T23:25:07.965Z,44.04
2023-03-16T23:30:20.749Z,44.42
2023-03-16T23:35:24.804Z,44.43
2023-03-16T23:40:29.083Z,44.50
2023-03-16T23:45:34.734Z,44.63
2023-03-16T23:50:37.643Z,44.68
2023-03-16T23:55:41.155Z,44.68
